createdAt,value
2023-04-15T00:00:05.999Z,0.0000
2023-04-15T00:01:06.334Z,0.0000
2023-04-15T00:02:06.645Z,0.0000
2023-04-15T00:03:07.037Z,0.0000
2023-04-15T00:04:07.782Z,0.0000
2023-04-15T00:05:08.187Z,0.0000
2023-04-15T00:06:08.550Z,0.0000
2023-04-15T00:07:08.877Z,0.0000
2023-04-15T00:08:09.156Z,0.0000
2023-04-15T00:09:09.528Z,0.0000
2023-04-15T00:10:09.823Z,0.0000
2023-04-15T00:11:10.075Z,0.0000
2023-04-15T00:12:10.389Z,0.0000
2023-04-15T00:13:10.676Z,0.0000
2023-04-15T00:14:10.969Z,0.0000
2023-04-15T00:15:11.229Z,0.0000
2023-04-15T00:16:11.507Z,0.0000
2023-04-15T00:17:11.741Z,0.0000
2023-04-15T00:18:12.038Z,0.0000
2023-04-15T00:19:12.337Z,0.0000
2023-04-15T00:20:12.637Z,0.0000
2023-04-15T00:21:12.928Z,0.0000
2023-04-15T00:22:13.231Z,0.0000
2023-04-15T00:23:13.470Z,0.0000
2023-04-15T00:24:13.767Z,0.0000
2023-04-15T00:25:14.080Z,0.0000
2023-04-15T00:26:14.344Z,0.0000
2023-04-15T00:27:14.669Z,0.0000
2023-04-15T00:28:14.964Z,0.0000
2023-04-15T00:29:15.244Z,0.0000
2023-04-15T00:30:15.559Z,0.0000
2023-04-15T00:31:15.947Z,0.0000
2023-04-15T00:32:16.258Z,0.0000
2023-04-15T00:33:16.508Z,0.0000
2023-04-15T00:34:16.791Z,0.0000
2023-04-15T00:35:17.129Z,0.0000
2023-04-15T00:36:17.416Z,0.0000
2023-04-15T00:37:17.755Z,0.0000
2023-04-15T00:38:18.026Z,0.0000
2023-04-15T00:39:18.296Z,0.0000
2023-04-15T00:40:18.576Z,0.0000
2023-04-15T00:41:18.860Z,0.0000
2023-04-15T00:42:19.101Z,0.0000
2023-04-15T00:43:19.381Z,0.0000
2023-04-15T00:44:19.920Z,0.0000
2023-04-15T00:45:20.252Z,0.0000
2023-04-15T00:46:20.675Z,0.0000
2023-04-15T00:47:21.036Z,0.0000
2023-04-15T00:48:21.360Z,0.0000
2023-04-15T00:49:21.579Z,0.0000
2023-04-15T00:50:21.860Z,0.0000
2023-04-15T00:51:22.114Z,0.0000
2023-04-15T00:52:22.437Z,0.0000
2023-04-15T00:53:22.816Z,0.0000
2023-04-15T00:54:23.140Z,0.0000
2023-04-15T00:55:23.421Z,0.0000
2023-04-15T00:56:23.689Z,0.0000
2023-04-15T00:57:23.999Z,0.0000
2023-04-15T00:58:24.340Z,0.0000
2023-04-15T00:59:24.623Z,0.0000
2023-04-15T01:00:24.963Z,0.0000
2023-04-15T01:01:25.164Z,0.0000
2023-04-15T01:02:25.483Z,0.0000
2023-04-15T01:03:25.947Z,0.0000
2023-04-15T01:04:26.564Z,0.0000
2023-04-15T01:05:26.894Z,0.0000
2023-04-15T01:06:27.173Z,0.0000
2023-04-15T01:07:27.400Z,0.0000
2023-04-15T01:08:27.697Z,0.0000
2023-04-15T01:09:27.979Z,0.0000
2023-04-15T01:10:28.244Z,0.0000
2023-04-15T01:11:28.528Z,0.0000
2023-04-15T01:12:28.736Z,0.0000
2023-04-15T01:13:29.023Z,0.0000
2023-04-15T01:14:29.316Z,0.0000
2023-04-15T01:15:29.629Z,0.0000
2023-04-15T01:16:29.983Z,0.0000
2023-04-15T01:17:30.235Z,0.0000
2023-04-15T01:18:30.484Z,0.0000
2023-04-15T01:19:30.753Z,0.0000
2023-04-15T01:20:31.071Z,0.0000
2023-04-15T01:21:31.361Z,0.0000
2023-04-15T01:22:31.665Z,0.0000
2023-04-15T01:23:31.916Z,0.0000
2023-04-15T01:24:34.326Z,0.0000
2023-04-15T01:25:36.131Z,0.0000
2023-04-15T01:26:36.445Z,0.0000
2023-04-15T01:27:36.719Z,0.0000
2023-04-15T01:28:37.050Z,0.0000
2023-04-15T01:29:37.316Z,0.0000
2023-04-15T01:30:37.588Z,0.0000
2023-04-15T01:31:37.936Z,0.0000
2023-04-15T01:32:38.322Z,0.0000
2023-04-15T01:33:38.629Z,0.0000
2023-04-15T01:34:38.924Z,0.0000
2023-04-15T01:35:39.199Z,0.0000
2023-04-15T01:36:39.478Z,0.0000
2023-04-15T01:37:39.762Z,0.0000
2023-04-15T01:38:40.042Z,0.0000
2023-04-15T01:39:40.328Z,0.0000
2023-04-15T01:40:40.556Z,0.0000
2023-04-15T01:41:40.835Z,0.0000
2023-04-15T01:42:41.147Z,0.0000
2023-04-15T01:43:41.391Z,0.0000
2023-04-15T01:44:41.672Z,0.0000
2023-04-15T01:45:41.900Z,0.0000
2023-04-15T01:46:42.155Z,0.0000
2023-04-15T01:47:42.481Z,0.0000
2023-04-15T01:48:42.730Z,0.0000
2023-04-15T01:49:42.959Z,0.0000
2023-04-15T01:50:43.237Z,0.0000
2023-04-15T01:51:43.542Z,0.0000
2023-04-15T01:52:43.918Z,0.0000
2023-04-15T01:53:44.265Z,0.0000
2023-04-15T01:54:44.629Z,0.0000
2023-04-15T01:55:44.939Z,0.0000
2023-04-15T01:56:45.271Z,0.0000
2023-04-15T01:57:45.610Z,0.0000
2023-04-15T01:58:46.040Z,0.0000
2023-04-15T01:59:46.353Z,0.0000
2023-04-15T02:00:46.702Z,0.0000
2023-04-15T02:01:47.018Z,0.0000
2023-04-15T02:02:47.339Z,0.0000
2023-04-15T02:03:47.891Z,0.0000
2023-04-15T02:04:48.524Z,0.0000
2023-04-15T02:05:48.816Z,0.0000
2023-04-15T02:06:49.170Z,0.0000
2023-04-15T02:07:49.471Z,0.0000
2023-04-15T02:08:49.739Z,0.0000
2023-04-15T02:09:50.106Z,0.0000
2023-04-15T02:10:50.456Z,0.0000
2023-04-15T02:11:50.779Z,0.0000
2023-04-15T02:12:51.075Z,0.0000
2023-04-15T02:13:51.410Z,0.0000
2023-04-15T02:14:51.753Z,0.0000
2023-04-15T02:15:52.237Z,0.0000
2023-04-15T02:16:52.623Z,0.0000
2023-04-15T02:17:52.984Z,0.0000
2023-04-15T02:18:53.329Z,0.0000
2023-04-15T02:19:53.657Z,0.0000
2023-04-15T02:20:53.953Z,0.0000
2023-04-15T02:21:54.281Z,0.0000
2023-04-15T02:22:54.599Z,0.0000
2023-04-15T02:23:54.916Z,0.0000
2023-04-15T02:24:55.222Z,0.0000
2023-04-15T02:25:55.586Z,0.0000
2023-04-15T02:26:55.934Z,0.0000
2023-04-15T02:27:56.209Z,0.0000
2023-04-15T02:28:56.576Z,0.0000
2023-04-15T02:29:56.907Z,0.0000
2023-04-15T02:30:57.320Z,0.0000
2023-04-15T02:31:57.783Z,0.0000
2023-04-15T02:32:58.134Z,0.0000
2023-04-15T02:33:58.444Z,0.0000
2023-04-15T02:34:58.779Z,0.0000
2023-04-15T02:35:59.076Z,0.0000
2023-04-15T02:36:59.384Z,0.0000
2023-04-15T02:37:59.629Z,0.0000
2023-04-15T02:39:00.127Z,0.0000
2023-04-15T02:40:00.661Z,0.0000
2023-04-15T02:41:00.907Z,0.0000
2023-04-15T02:42:01.293Z,0.0000
2023-04-15T02:43:01.542Z,0.0000
2023-04-15T02:44:01.910Z,0.0000
2023-04-15T02:45:02.349Z,0.0000
2023-04-15T02:46:02.853Z,0.0000
2023-04-15T02:47:03.287Z,0.0000
2023-04-15T02:48:03.617Z,0.0000
2023-04-15T02:49:03.914Z,0.0000
2023-04-15T02:50:04.266Z,0.0000
2023-04-15T02:51:04.563Z,0.0000
2023-04-15T02:52:04.848Z,0.0000
2023-04-15T02:53:05.173Z,0.0000
2023-04-15T02:54:05.488Z,0.0000
2023-04-15T02:55:05.796Z,0.0000
2023-04-15T02:56:06.137Z,0.0000
2023-04-15T02:57:06.458Z,0.0000
2023-04-15T02:58:06.816Z,0.0000
2023-04-15T02:59:07.154Z,0.0000
2023-04-15T03:00:07.475Z,0.0000
2023-04-15T03:01:08.128Z,0.0000
2023-04-15T03:02:08.817Z,0.0000
2023-04-15T03:03:09.276Z,0.0000
2023-04-15T03:04:09.723Z,0.0000
2023-04-15T03:05:10.153Z,0.0000
2023-04-15T03:06:10.416Z,0.0000
2023-04-15T03:07:10.753Z,0.0000
2023-04-15T03:08:11.030Z,0.0000
2023-04-15T03:09:11.357Z,0.0000
2023-04-15T03:10:11.693Z,0.0000
2023-04-15T03:11:13.175Z,0.0000
2023-04-15T03:12:13.503Z,0.0000
2023-04-15T03:13:13.849Z,0.0000
2023-04-15T03:14:14.138Z,0.0000
2023-04-15T03:15:14.499Z,0.0000
2023-04-15T03:16:14.868Z,0.0000
2023-04-15T03:17:15.198Z,0.0000
2023-04-15T03:18:15.491Z,0.0000
2023-04-15T03:19:15.849Z,0.0000
2023-04-15T03:20:16.243Z,0.0000
2023-04-15T03:21:16.661Z,0.0000
2023-04-15T03:22:17.001Z,0.0000
2023-04-15T03:23:17.315Z,0.0000
2023-04-15T03:24:17.678Z,0.0000
2023-04-15T03:25:17.969Z,0.0000
2023-04-15T03:26:18.283Z,0.0000
2023-04-15T03:27:18.606Z,0.0000
2023-04-15T03:28:19.094Z,0.0000
2023-04-15T03:29:19.626Z,0.0000
2023-04-15T03:30:19.946Z,0.0000
2023-04-15T03:31:20.315Z,0.0000
2023-04-15T03:32:20.640Z,0.0000
2023-04-15T03:33:20.985Z,0.0000
2023-04-15T03:34:21.367Z,0.0000
2023-04-15T03:35:21.730Z,0.0000
2023-04-15T03:36:22.052Z,0.0000
2023-04-15T03:37:22.381Z,0.0000
2023-04-15T03:38:22.662Z,0.0000
2023-04-15T03:39:22.974Z,0.0000
2023-04-15T03:40:23.271Z,0.0000
2023-04-15T03:41:23.559Z,0.0000
2023-04-15T03:42:23.859Z,0.0000
2023-04-15T03:43:24.234Z,0.0000
2023-04-15T03:44:24.501Z,0.0000
2023-04-15T03:45:24.818Z,0.0000
2023-04-15T03:46:25.189Z,0.0000
2023-04-15T03:47:25.589Z,0.0000
2023-04-15T03:48:25.901Z,0.0000
2023-04-15T03:49:26.241Z,0.0000
2023-04-15T03:50:26.559Z,0.0000
2023-04-15T03:51:26.889Z,0.0000
2023-04-15T03:52:27.165Z,0.0000
2023-04-15T03:53:27.561Z,0.0000
2023-04-15T03:54:27.868Z,0.0000
2023-04-15T03:55:28.212Z,0.0000
2023-04-15T03:56:28.718Z,0.0000
2023-04-15T03:57:29.297Z,0.0000
2023-04-15T03:58:29.615Z,0.0000
2023-04-15T03:59:29.981Z,0.0000
2023-04-15T04:00:30.294Z,0.0000
2023-04-15T04:01:30.714Z,0.0000
2023-04-15T04:02:31.114Z,0.0000
2023-04-15T04:03:31.671Z,0.0000
2023-04-15T04:04:32.184Z,0.0000
2023-04-15T04:05:32.817Z,0.0000
2023-04-15T04:06:33.318Z,0.0000
2023-04-15T04:07:33.673Z,0.0000
2023-04-15T04:08:33.977Z,0.0000
2023-04-15T04:09:34.314Z,0.2609
2023-04-15T04:10:34.617Z,3.0000
2023-04-15T04:11:36.353Z,3.0000
2023-04-15T04:12:36.646Z,3.0435
2023-04-15T04:13:36.970Z,0.3043
2023-04-15T04:14:37.290Z,2.9565
2023-04-15T04:15:37.757Z,4.0000
2023-04-15T04:16:38.119Z,6.3913
2023-04-15T04:17:38.431Z,5.1739
2023-04-15T04:18:38.743Z,9.0000
2023-04-15T04:19:39.038Z,10.3043
2023-04-15T04:20:39.366Z,14.7826
2023-04-15T04:21:39.730Z,16.2609
2023-04-15T04:22:40.112Z,22.0000
2023-04-15T04:23:40.467Z,21.5652
2023-04-15T04:24:40.742Z,29.3478
2023-04-15T04:25:41.052Z,42.6087
2023-04-15T04:26:41.357Z,41.2174
2023-04-15T04:27:41.648Z,45.2174
2023-04-15T04:28:41.930Z,64.0435
2023-04-15T04:29:42.269Z,73.9565
2023-04-15T04:30:42.605Z,91.9130
2023-04-15T04:31:42.932Z,100.8261
2023-04-15T04:32:43.300Z,109.7391
2023-04-15T04:33:43.593Z,113.9565
2023-04-15T04:34:43.948Z,144.6956
2023-04-15T04:35:44.321Z,164.3913
2023-04-15T04:36:44.660Z,182.6522
2023-04-15T04:37:45.027Z,195.8696
2023-04-15T04:38:45.327Z,227.7826
2023-04-15T04:39:45.669Z,252.0435
2023-04-15T04:40:46.011Z,274.6522
2023-04-15T04:41:46.359Z,302.5652
2023-04-15T04:42:46.687Z,331.2174
2023-04-15T04:43:47.007Z,362.4348
2023-04-15T04:44:47.309Z,403.3478
2023-04-15T04:45:47.714Z,438.5217
2023-04-15T04:46:48.023Z,468.0435
2023-04-15T04:47:48.331Z,507.7391
2023-04-15T04:48:48.684Z,549.9565
2023-04-15T04:49:49.013Z,592.8696
2023-04-15T04:50:49.374Z,631.9130
2023-04-15T04:51:49.629Z,672.0435
2023-04-15T04:52:49.987Z,718.4783
2023-04-15T04:53:50.322Z,773.4348
2023-04-15T04:54:50.640Z,822.5652
2023-04-15T04:55:50.976Z,878.5217
2023-04-15T04:56:51.325Z,939.5217
2023-04-15T04:57:51.699Z,1000.9565
2023-04-15T04:58:52.055Z,1060.6957
2023-04-15T04:59:52.354Z,1123.4783
2023-04-15T05:00:52.697Z,1180.3914
2023-04-15T05:01:53.056Z,1253.1305
2023-04-15T05:02:53.538Z,1307.0000
2023-04-15T05:03:54.135Z,1371.6522
2023-04-15T05:04:54.590Z,1445.7826
2023-04-15T05:05:54.966Z,1502.9565
2023-04-15T05:06:55.336Z,1574.2174
2023-04-15T05:07:55.756Z,1646.1305
2023-04-15T05:08:56.049Z,1697.8260
2023-04-15T05:09:56.397Z,1766.8695
2023-04-15T05:10:56.741Z,1829.9131
2023-04-15T05:11:57.049Z,1884.4348
2023-04-15T05:12:57.384Z,1941.6522
2023-04-15T05:13:57.707Z,1997.2609
2023-04-15T05:14:58.079Z,2056.7827
2023-04-15T05:15:58.440Z,2126.8696
2023-04-15T05:16:58.762Z,2180.7390
2023-04-15T05:17:59.194Z,2252.5652
2023-04-15T05:18:59.632Z,2309.2173
2023-04-15T05:20:00.211Z,2370.8696
2023-04-15T05:21:00.563Z,2438.4348
2023-04-15T05:22:00.872Z,2491.8696
2023-04-15T05:23:01.244Z,2536.4348
2023-04-15T05:24:01.553Z,2557.8696
2023-04-15T05:25:01.884Z,2587.7827
2023-04-15T05:26:02.218Z,2612.4348
2023-04-15T05:27:02.590Z,2660.8696
2023-04-15T05:28:03.008Z,2746.2610
2023-04-15T05:29:03.457Z,2869.3479
2023-04-15T05:30:03.947Z,2995.1738
2023-04-15T05:31:04.321Z,3130.4783
2023-04-15T05:32:04.652Z,3264.4783
2023-04-15T05:33:05.105Z,3394.7390
2023-04-15T05:34:05.512Z,3524.6521
2023-04-15T05:35:05.839Z,3613.3044
2023-04-15T05:36:06.172Z,3694.3914
2023-04-15T05:37:06.507Z,3724.0869
2023-04-15T05:38:06.857Z,3732.3044
2023-04-15T05:39:07.222Z,3716.1738
2023-04-15T05:40:07.590Z,3774.1738
2023-04-15T05:41:07.888Z,3825.5217
2023-04-15T05:42:08.260Z,3936.8696
2023-04-15T05:43:08.605Z,4102.7827
2023-04-15T05:44:08.896Z,4235.5654
2023-04-15T05:45:09.307Z,4331.2607
2023-04-15T05:46:09.736Z,4426.9131
2023-04-15T05:47:10.026Z,4518.0435
2023-04-15T05:48:10.443Z,4593.1738
2023-04-15T05:49:10.814Z,4710.1304
2023-04-15T05:50:11.160Z,4874.2607
2023-04-15T05:51:11.640Z,5069.0869
2023-04-15T05:52:11.964Z,5284.1738
2023-04-15T05:53:12.280Z,5535.6523
2023-04-15T05:54:12.585Z,5756.6958
2023-04-15T05:55:12.916Z,6001.8262
2023-04-15T05:56:13.242Z,6230.6958
2023-04-15T05:57:13.562Z,6443.0869
2023-04-15T05:58:13.887Z,6674.7393
2023-04-15T05:59:14.177Z,6881.4346
2023-04-15T06:00:14.569Z,7101.0435
2023-04-15T06:01:14.892Z,7320.3042
2023-04-15T06:02:15.335Z,7475.5654
2023-04-15T06:03:15.704Z,7610.8696
2023-04-15T06:04:16.028Z,7775.4346
2023-04-15T06:05:16.372Z,7964.9565
2023-04-15T06:06:16.890Z,8199.5654
2023-04-15T06:07:17.288Z,8474.1738
2023-04-15T06:08:17.615Z,8734.5215
2023-04-15T06:09:17.885Z,9096.8691
2023-04-15T06:10:18.164Z,9455.6523
2023-04-15T06:11:18.437Z,9793.6953
2023-04-15T06:12:18.867Z,10204.8691
2023-04-15T06:13:19.127Z,10583.4785
2023-04-15T06:14:19.423Z,10890.8262
2023-04-15T06:15:19.797Z,11033.4785
2023-04-15T06:16:20.081Z,10874.0439
2023-04-15T06:17:20.451Z,10532.3047
2023-04-15T06:18:20.702Z,10214.6084
2023-04-15T06:19:21.149Z,9995.3916
2023-04-15T06:20:21.397Z,9860.1309
2023-04-15T06:21:21.740Z,9823.1738
2023-04-15T06:22:22.091Z,9877.8262
2023-04-15T06:23:22.411Z,10072.9131
2023-04-15T06:24:22.732Z,10361.0869
2023-04-15T06:25:23.047Z,10956.3047
2023-04-15T06:26:23.321Z,11662.0000
2023-04-15T06:27:23.654Z,12363.0000
2023-04-15T06:28:23.940Z,13080.9561
2023-04-15T06:29:24.251Z,13639.9131
2023-04-15T06:30:24.639Z,13938.1309
2023-04-15T06:31:24.973Z,14099.7393
2023-04-15T06:32:25.297Z,14036.2178
2023-04-15T06:33:25.597Z,13817.3047
2023-04-15T06:34:25.941Z,13591.7393
2023-04-15T06:35:26.241Z,13471.5654
2023-04-15T06:36:26.608Z,13248.9561
2023-04-15T06:37:26.914Z,13018.3477
2023-04-15T06:38:27.334Z,12809.5215
2023-04-15T06:39:27.661Z,12431.0439
2023-04-15T06:40:27.996Z,12042.6523
2023-04-15T06:41:28.255Z,11831.2178
2023-04-15T06:42:28.575Z,11789.7393
2023-04-15T06:43:28.907Z,11952.3047
2023-04-15T06:44:29.268Z,12345.3916
2023-04-15T06:45:29.678Z,12972.3477
2023-04-15T06:46:30.005Z,13703.6523
2023-04-15T06:47:30.370Z,14404.8262
2023-04-15T06:48:30.794Z,15032.0439
2023-04-15T06:49:31.146Z,15257.6523
2023-04-15T06:50:31.517Z,14784.1738
2023-04-15T06:51:31.839Z,13638.7822
2023-04-15T06:52:32.184Z,12552.6084
2023-04-15T06:53:32.617Z,12029.4785
2023-04-15T06:54:32.943Z,12288.2178
2023-04-15T06:55:33.295Z,12813.5654
2023-04-15T06:56:33.629Z,12953.6084
2023-04-15T06:57:35.160Z,12670.3477
2023-04-15T06:58:35.603Z,12639.9561
2023-04-15T06:59:36.132Z,13073.9561
2023-04-15T07:00:36.467Z,13619.8262
2023-04-15T07:01:36.903Z,14070.1309
2023-04-15T07:02:37.319Z,14317.9131
2023-04-15T07:03:37.768Z,14179.6953
2023-04-15T07:04:38.351Z,13869.0439
2023-04-15T07:05:38.745Z,13741.3477
2023-04-15T07:06:39.242Z,14013.7822
2023-04-15T07:07:39.594Z,14510.6523
2023-04-15T07:08:39.902Z,14775.9131
2023-04-15T07:09:40.328Z,15012.9561
2023-04-15T07:10:40.600Z,15351.0869
2023-04-15T07:11:40.956Z,15785.2607
2023-04-15T07:12:41.274Z,15979.8262
2023-04-15T07:13:41.650Z,16064.4785
2023-04-15T07:14:41.989Z,16675.4355
2023-04-15T07:15:42.319Z,17319.8262
2023-04-15T07:16:42.720Z,17782.7832
2023-04-15T07:17:43.107Z,17839.1738
2023-04-15T07:18:43.473Z,17836.9570
2023-04-15T07:19:43.819Z,17957.7832
2023-04-15T07:20:44.111Z,17944.4785
2023-04-15T07:21:44.470Z,18036.6523
2023-04-15T07:22:44.805Z,18078.4785
2023-04-15T07:23:45.174Z,17594.9121
2023-04-15T07:24:45.583Z,16893.9121
2023-04-15T07:25:45.934Z,16462.0000
2023-04-15T07:26:46.299Z,16462.2617
2023-04-15T07:27:46.624Z,16787.0879
2023-04-15T07:28:46.968Z,17267.0879
2023-04-15T07:29:47.399Z,17760.2617
2023-04-15T07:30:47.818Z,18130.9570
2023-04-15T07:31:48.196Z,18282.1738
2023-04-15T07:32:48.529Z,18222.1309
2023-04-15T07:33:48.962Z,18173.0879
2023-04-15T07:34:49.358Z,18048.7832
2023-04-15T07:35:49.750Z,17815.3477
2023-04-15T07:36:50.075Z,17513.9121
2023-04-15T07:37:50.437Z,17153.4355
2023-04-15T07:38:50.836Z,16861.0879
2023-04-15T07:39:51.325Z,16601.0879
2023-04-15T07:40:51.676Z,16336.4346
2023-04-15T07:41:52.141Z,16107.6953
2023-04-15T07:42:52.515Z,15947.2178
2023-04-15T07:43:52.838Z,15822.5215
2023-04-15T07:44:53.242Z,15824.0439
2023-04-15T07:45:53.642Z,15921.3916
2023-04-15T07:46:54.035Z,16010.9561
2023-04-15T07:47:54.401Z,16008.7393
2023-04-15T07:48:54.745Z,15956.7822
2023-04-15T07:49:55.095Z,15925.6084
2023-04-15T07:50:55.445Z,15927.7822
2023-04-15T07:51:55.791Z,16027.3047
2023-04-15T07:52:56.128Z,16113.7822
2023-04-15T07:53:56.492Z,16209.8691
2023-04-15T07:54:56.811Z,16268.2607
2023-04-15T07:55:57.188Z,16238.2607
2023-04-15T07:56:57.569Z,16201.8691
2023-04-15T07:57:57.907Z,16249.5215
2023-04-15T07:58:58.292Z,16390.6953
2023-04-15T07:59:58.593Z,16576.2168
2023-04-15T08:00:58.963Z,16843.4355
2023-04-15T08:01:59.335Z,17199.5645
2023-04-15T08:02:59.819Z,17490.4355
2023-04-15T08:04:00.763Z,17676.7383
2023-04-15T08:05:01.265Z,17813.8262
2023-04-15T08:06:01.590Z,18012.3047
2023-04-15T08:07:01.943Z,18277.0430
2023-04-15T08:08:02.293Z,18630.3477
2023-04-15T08:09:02.885Z,19048.4355
2023-04-15T08:10:03.317Z,19526.1738
2023-04-15T08:11:03.662Z,20053.4785
2023-04-15T08:12:04.022Z,20624.3477
2023-04-15T08:13:04.352Z,21171.3477
2023-04-15T08:14:04.696Z,21656.1738
2023-04-15T08:15:04.996Z,22144.6094
2023-04-15T08:16:05.415Z,22714.8262
2023-04-15T08:17:05.792Z,23314.0000
2023-04-15T08:18:06.107Z,23816.7383
2023-04-15T08:19:06.471Z,24305.6094
2023-04-15T08:20:06.839Z,24821.7383
2023-04-15T08:21:07.170Z,25208.4355
2023-04-15T08:22:15.636Z,25356.1738
2023-04-15T08:23:08.562Z,25353.4277
2023-04-15T08:24:08.905Z,25339.3477
2023-04-15T08:25:09.237Z,25234.2617
2023-04-15T08:26:09.563Z,25100.6094
2023-04-15T08:27:09.907Z,24966.0879
2023-04-15T08:28:10.225Z,24814.6523
2023-04-15T08:29:10.558Z,24849.7383
2023-04-15T08:30:10.912Z,25040.9570
2023-04-15T08:31:11.256Z,25227.0000
2023-04-15T08:32:11.695Z,25309.2168
2023-04-15T08:33:12.026Z,25172.6953
2023-04-15T08:34:12.375Z,24815.1738
2023-04-15T08:35:12.698Z,24095.6953
2023-04-15T08:36:13.044Z,23115.1738
2023-04-15T08:37:13.469Z,22104.9570
2023-04-15T08:38:13.833Z,21161.7383
2023-04-15T08:39:14.210Z,20312.0430
2023-04-15T08:40:14.548Z,19508.0879
2023-04-15T08:41:14.854Z,18765.2168
2023-04-15T08:42:15.217Z,18167.8262
2023-04-15T08:43:15.570Z,17803.8691
2023-04-15T08:44:15.903Z,17699.8691
2023-04-15T08:45:16.334Z,17755.5215
2023-04-15T08:46:16.681Z,17909.2168
2023-04-15T08:47:17.047Z,18139.2168
2023-04-15T08:48:17.418Z,18440.8262
2023-04-15T08:49:17.765Z,18812.5645
2023-04-15T08:50:18.088Z,19251.2617
2023-04-15T08:51:18.395Z,19737.6094
2023-04-15T08:52:18.757Z,20189.9121
2023-04-15T08:53:19.079Z,20566.0879
2023-04-15T08:54:19.437Z,20843.1309
2023-04-15T08:55:19.730Z,21001.8691
2023-04-15T08:56:20.042Z,21078.3477
2023-04-15T08:57:20.454Z,21060.0000
2023-04-15T08:58:20.799Z,20984.7832
2023-04-15T08:59:21.163Z,20894.4785
2023-04-15T09:00:21.437Z,20815.0000
2023-04-15T09:01:21.873Z,20763.4355
2023-04-15T09:02:22.424Z,20857.1738
2023-04-15T09:03:23.064Z,21157.2617
2023-04-15T09:04:23.420Z,21607.1309
2023-04-15T09:05:23.764Z,22111.5645
2023-04-15T09:06:24.084Z,22579.0879
2023-04-15T09:07:24.472Z,22963.2617
2023-04-15T09:08:24.871Z,23274.1309
2023-04-15T09:09:25.334Z,23410.5215
2023-04-15T09:10:25.677Z,23326.0879
2023-04-15T09:11:26.052Z,23092.5215
2023-04-15T09:12:26.316Z,22818.0000
2023-04-15T09:13:26.662Z,22631.4785
2023-04-15T09:14:26.987Z,22577.4355
2023-04-15T09:15:27.320Z,22736.0430
2023-04-15T09:16:27.682Z,23114.0430
2023-04-15T09:17:28.128Z,23609.3906
2023-04-15T09:18:28.400Z,24148.4355
2023-04-15T09:19:28.732Z,24601.1309
2023-04-15T09:20:29.077Z,25191.3906
2023-04-15T09:21:29.373Z,25954.3477
2023-04-15T09:22:29.708Z,26790.8262
2023-04-15T09:23:30.155Z,27613.3047
2023-04-15T09:24:30.510Z,28393.5645
2023-04-15T09:25:32.776Z,29045.6094
2023-04-15T09:26:31.280Z,29644.0449
2023-04-15T09:27:31.607Z,30327.5645
2023-04-15T09:28:31.942Z,31047.3047
2023-04-15T09:29:32.331Z,31595.8262
2023-04-15T09:30:32.692Z,32037.1738
2023-04-15T09:31:33.026Z,32259.5645
2023-04-15T09:32:33.352Z,32229.0000
2023-04-15T09:33:34.179Z,32314.3477
2023-04-15T09:34:34.551Z,32240.0000
2023-04-15T09:35:34.879Z,31842.3047
2023-04-15T09:36:35.169Z,31284.0430
2023-04-15T09:37:35.546Z,30736.0000
2023-04-15T09:38:35.951Z,29590.1309
2023-04-15T09:39:36.326Z,29073.4785
2023-04-15T09:40:36.691Z,28705.5645
2023-04-15T09:41:37.184Z,28046.2617
2023-04-15T09:42:37.610Z,27181.5645
2023-04-15T09:43:38.083Z,26868.1309
2023-04-15T09:44:38.400Z,26467.4355
2023-04-15T09:45:38.741Z,26107.1738
2023-04-15T09:46:39.071Z,25514.0879
2023-04-15T09:47:39.386Z,25043.6953
2023-04-15T09:48:39.701Z,25097.3906
2023-04-15T09:49:40.045Z,24927.8262
2023-04-15T09:50:40.366Z,25078.1309
2023-04-15T09:51:41.294Z,25528.9570
2023-04-15T09:52:41.724Z,26011.3047
2023-04-15T09:53:42.160Z,26229.3477
2023-04-15T09:54:42.500Z,26534.1309
2023-04-15T09:55:42.887Z,27043.4355
2023-04-15T09:56:43.254Z,27181.2617
2023-04-15T09:57:44.572Z,27104.2617
2023-04-15T09:58:44.994Z,26910.6953
2023-04-15T09:59:45.300Z,26542.4785
2023-04-15T10:00:45.616Z,26378.1738
2023-04-15T10:01:46.162Z,26541.9570
2023-04-15T10:02:46.607Z,26927.8691
2023-04-15T10:03:47.089Z,27116.1309
2023-04-15T10:04:47.430Z,27192.7832
2023-04-15T10:05:47.833Z,27273.8691
2023-04-15T10:06:48.132Z,27305.2617
2023-04-15T10:07:48.496Z,26675.1309
2023-04-15T10:08:48.967Z,25262.7383
2023-04-15T10:09:49.379Z,24098.1309
2023-04-15T10:10:49.706Z,24074.1738
2023-04-15T10:11:50.117Z,24103.1309
2023-04-15T10:12:50.428Z,24262.0000
2023-04-15T10:13:50.775Z,24099.2617
2023-04-15T10:14:51.059Z,24175.5645
2023-04-15T10:15:51.437Z,24763.0879
2023-04-15T10:16:51.847Z,25526.8262
2023-04-15T10:17:52.457Z,26058.5645
2023-04-15T10:18:52.831Z,26210.7832
2023-04-15T10:19:53.200Z,26388.3477
2023-04-15T10:20:53.517Z,26175.9121
2023-04-15T10:21:53.868Z,25426.6953
2023-04-15T10:22:54.229Z,24612.4355
2023-04-15T10:23:54.587Z,23977.4785
2023-04-15T10:24:54.912Z,23684.9570
2023-04-15T10:25:55.282Z,23896.7832
2023-04-15T10:26:55.688Z,24656.1309
2023-04-15T10:27:56.060Z,25654.7832
2023-04-15T10:28:56.946Z,26915.5215
2023-04-15T10:29:58.255Z,28242.2617
2023-04-15T10:30:59.147Z,29348.7734
2023-04-15T10:31:59.673Z,30047.8262
2023-04-15T10:33:00.280Z,30478.6523
2023-04-15T10:34:01.014Z,30810.3477
2023-04-15T10:35:01.512Z,31369.9121
2023-04-15T10:36:02.076Z,33051.0000
2023-04-15T10:37:02.360Z,33644.7812
2023-04-15T10:38:02.712Z,34170.9570
2023-04-15T10:39:03.066Z,34769.6094
2023-04-15T10:40:05.535Z,34549.8711
2023-04-15T10:41:05.931Z,35104.6523
2023-04-15T10:42:06.394Z,36135.5664
2023-04-15T10:43:06.735Z,36888.3047
2023-04-15T10:44:07.093Z,37575.2617
2023-04-15T10:45:07.413Z,38140.4766
2023-04-15T10:46:07.759Z,38617.3906
2023-04-15T10:47:08.059Z,38691.2188
2023-04-15T10:48:08.443Z,38460.6953
2023-04-15T10:49:08.789Z,38558.3477
2023-04-15T10:50:09.145Z,39052.0000
2023-04-15T10:51:09.462Z,39207.2188
2023-04-15T10:52:09.812Z,38689.7812
2023-04-15T10:53:10.105Z,37702.7383
2023-04-15T10:54:10.440Z,36407.2188
2023-04-15T10:55:10.742Z,35211.1758
2023-04-15T10:56:11.085Z,34070.1758
2023-04-15T10:57:11.383Z,33292.0000
2023-04-15T10:58:11.735Z,32827.2617
2023-04-15T10:59:12.101Z,32445.3047
2023-04-15T11:00:12.490Z,31937.6094
2023-04-15T11:01:12.793Z,31858.3047
2023-04-15T11:02:13.262Z,31852.5215
2023-04-15T11:03:13.710Z,32065.0430
2023-04-15T11:04:14.260Z,32185.6523
2023-04-15T11:05:14.566Z,32244.3906
2023-04-15T11:06:14.921Z,32113.6953
2023-04-15T11:07:15.250Z,31821.4355
2023-04-15T11:08:15.569Z,31928.5645
2023-04-15T11:09:15.967Z,32381.6953
2023-04-15T11:10:16.292Z,32986.3477
2023-04-15T11:11:16.634Z,33809.8242
2023-04-15T11:12:17.002Z,34366.3047
2023-04-15T11:13:17.433Z,34515.5664
2023-04-15T11:14:17.895Z,33955.7812
2023-04-15T11:15:18.252Z,32670.8691
2023-04-15T11:16:18.657Z,31408.2168
2023-04-15T11:17:18.931Z,30082.7383
2023-04-15T11:18:19.277Z,28502.6523
2023-04-15T11:19:19.639Z,26667.5215
2023-04-15T11:20:19.958Z,24707.1309
2023-04-15T11:21:20.260Z,22682.9121
2023-04-15T11:22:20.617Z,20490.1309
2023-04-15T11:23:20.889Z,18694.2617
2023-04-15T11:24:21.269Z,17888.1309
2023-04-15T11:25:22.249Z,16713.7832
2023-04-15T11:26:22.591Z,15203.1738
2023-04-15T11:27:22.961Z,13936.3916
2023-04-15T11:28:23.352Z,12833.5654
2023-04-15T11:29:23.757Z,11733.1309
2023-04-15T11:30:24.194Z,10784.3047
2023-04-15T11:31:24.620Z,10570.8262
2023-04-15T11:32:25.298Z,11019.5654
2023-04-15T11:33:25.991Z,12073.3477
2023-04-15T11:34:26.411Z,13409.5215
2023-04-15T11:35:26.785Z,15018.0000
2023-04-15T11:36:27.200Z,17171.8691
2023-04-15T11:37:27.532Z,20476.1309
2023-04-15T11:38:27.874Z,24457.0879
2023-04-15T11:39:28.303Z,27974.6953
2023-04-15T11:40:28.654Z,29337.4355
2023-04-15T11:41:29.030Z,29514.1738
2023-04-15T11:42:39.280Z,29538.9570